createdAt,value
2022-12-23T00:00:03.082Z,3.50
2022-12-23T00:03:14.013Z,3.50
2022-12-23T00:06:18.953Z,3.50
2022-12-23T00:09:23.625Z,3.50
2022-12-23T00:12:44.724Z,3.50
2022-12-23T00:15:47.920Z,3.50
2022-12-23T00:18:51.246Z,3.50
2022-12-23T00:21:54.448Z,3.50
2022-12-23T00:28:02.703Z,3.50
2022-12-23T00:31:10.927Z,3.50
2022-12-23T00:34:14.204Z,3.50
2022-12-23T00:37:17.499Z,3.50
2022-12-23T00:40:36.127Z,3.50
2022-12-23T00:43:39.334Z,3.60
2022-12-23T00:46:42.679Z,3.60
2022-12-23T00:49:44.931Z,3.60
2022-12-23T00:52:48.074Z,3.60
2022-12-23T00:55:53.167Z,3.60
2022-12-23T00:58:56.359Z,3.60
2022-12-23T01:02:16.899Z,3.70
2022-12-23T01:05:43.189Z,3.60
2022-12-23T01:08:46.542Z,3.60
2022-12-23T01:11:51.129Z,3.60
2022-12-23T01:14:54.306Z,3.50
2022-12-23T01:17:57.498Z,3.60
2022-12-23T01:21:03.936Z,3.60
2022-12-23T01:24:07.841Z,3.60
2022-12-23T01:27:12.551Z,3.50
2022-12-23T01:30:16.183Z,3.50
2022-12-23T01:33:19.430Z,3.50
2022-12-23T01:36:24.076Z,3.50
2022-12-23T01:39:27.616Z,3.40
2022-12-23T01:42:44.511Z,3.40
2022-12-23T01:45:48.143Z,3.40
2022-12-23T01:48:54.018Z,3.40
2022-12-23T01:51:57.455Z,3.40
2022-12-23T01:55:00.667Z,3.30
2022-12-23T01:58:09.805Z,3.40
2022-12-23T02:01:41.028Z,3.40
2022-12-23T02:04:45.272Z,3.40
2022-12-23T02:08:06.167Z,3.40
2022-12-23T02:11:35.620Z,3.30
2022-12-23T02:15:11.747Z,3.30
2022-12-23T02:18:53.741Z,3.30
2022-12-23T02:22:28.224Z,3.40
2022-12-23T02:26:08.776Z,3.30
2022-12-23T02:29:27.734Z,3.40
2022-12-23T02:32:53.743Z,3.30
2022-12-23T02:36:03.880Z,3.30
2022-12-23T02:39:10.932Z,3.30
2022-12-23T02:42:18.139Z,3.10
2022-12-23T02:45:26.821Z,3.10
2022-12-23T02:48:38.804Z,3.00
2022-12-23T02:51:45.405Z,2.90
2022-12-23T02:54:53.200Z,2.90
2022-12-23T02:57:58.808Z,2.90
2022-12-23T03:01:03.375Z,2.90
2022-12-23T03:04:08.282Z,2.80
2022-12-23T03:07:19.154Z,2.70
2022-12-23T03:10:35.099Z,2.70
2022-12-23T03:14:00.322Z,2.70
2022-12-23T03:17:16.679Z,2.70
2022-12-23T03:20:27.833Z,2.70
2022-12-23T03:23:34.614Z,2.70
2022-12-23T03:26:41.716Z,2.70
2022-12-23T03:29:51.770Z,2.60
2022-12-23T03:32:58.265Z,2.70
2022-12-23T03:36:07.067Z,2.70
2022-12-23T03:39:14.118Z,2.60
2022-12-23T03:42:24.099Z,2.60
2022-12-23T03:45:40.416Z,2.60
2022-12-23T03:48:47.305Z,2.60
2022-12-23T03:51:57.318Z,2.60
2022-12-23T03:55:04.726Z,2.60
2022-12-23T03:58:14.904Z,2.60
2022-12-23T04:01:25.171Z,2.70
2022-12-23T04:04:30.538Z,2.70
2022-12-23T04:07:42.279Z,2.70
2022-12-23T04:10:45.826Z,2.70
2022-12-23T04:13:49.812Z,2.80
2022-12-23T04:16:56.349Z,2.60
2022-12-23T04:19:59.602Z,2.70
2022-12-23T04:23:04.406Z,2.70
2022-12-23T04:26:07.581Z,2.60
2022-12-23T04:29:11.468Z,2.70
2022-12-23T04:32:14.782Z,2.60
2022-12-23T04:35:18.135Z,2.70
2022-12-23T04:38:22.752Z,2.70
2022-12-23T04:41:25.944Z,2.60
2022-12-23T04:44:29.217Z,2.60
2022-12-23T04:47:32.364Z,2.60
2022-12-23T04:50:35.703Z,2.60
2022-12-23T04:53:40.537Z,2.80
2022-12-23T04:56:44.561Z,2.60
2022-12-23T04:59:48.052Z,2.60
2022-12-23T05:02:51.949Z,2.60
2022-12-23T05:05:55.204Z,2.60
2022-12-23T05:08:59.832Z,2.60
2022-12-23T05:12:03.102Z,2.70
2022-12-23T05:15:07.226Z,2.60
2022-12-23T05:18:10.381Z,2.60
2022-12-23T05:21:13.722Z,2.60
2022-12-23T05:24:18.402Z,2.60
2022-12-23T05:27:21.581Z,2.60
2022-12-23T05:30:25.021Z,2.50
2022-12-23T05:33:28.614Z,2.60
2022-12-23T05:36:31.792Z,2.60
2022-12-23T05:39:36.598Z,2.60
2022-12-23T05:42:39.985Z,2.60
2022-12-23T05:45:43.400Z,2.60
2022-12-23T05:48:46.589Z,2.60
2022-12-23T05:51:49.924Z,2.50
2022-12-23T05:57:58.168Z,2.50
2022-12-23T06:01:03.571Z,2.60
2022-12-23T06:04:06.880Z,2.60
2022-12-23T06:07:10.398Z,2.50
2022-12-23T06:10:14.948Z,2.50
2022-12-23T06:13:18.278Z,2.50
2022-12-23T06:16:21.533Z,2.50
2022-12-23T06:19:25.106Z,2.40
2022-12-23T06:22:28.395Z,2.50
2022-12-23T06:25:33.025Z,2.50
2022-12-23T06:28:36.255Z,2.40
2022-12-23T06:31:39.530Z,2.40
2022-12-23T06:34:42.752Z,2.40
2022-12-23T06:37:45.891Z,2.50
2022-12-23T06:40:50.475Z,2.40
2022-12-23T06:43:54.618Z,2.40
2022-12-23T06:46:58.086Z,2.40
2022-12-23T06:50:01.314Z,2.40
2022-12-23T06:53:04.951Z,2.50
2022-12-23T06:56:09.745Z,2.40
2022-12-23T06:59:13.538Z,2.50
2022-12-23T07:02:17.224Z,2.50
2022-12-23T07:05:20.585Z,2.50
2022-12-23T07:08:23.935Z,2.60
2022-12-23T07:11:28.630Z,2.50
2022-12-23T07:14:31.932Z,2.60
2022-12-23T07:17:35.172Z,2.60
2022-12-23T07:20:38.421Z,2.60
2022-12-23T07:23:41.900Z,2.70
2022-12-23T07:26:46.710Z,2.70
2022-12-23T07:29:50.007Z,2.70
2022-12-23T07:32:53.752Z,2.70
2022-12-23T07:35:59.621Z,2.80
2022-12-23T07:39:03.153Z,2.80
2022-12-23T07:45:31.776Z,2.70
2022-12-23T07:48:35.363Z,2.70
2022-12-23T07:51:38.633Z,2.70
2022-12-23T07:54:41.892Z,2.70
2022-12-23T07:57:49.184Z,2.70
2022-12-23T08:00:53.205Z,2.80
2022-12-23T08:03:57.034Z,2.80
2022-12-23T08:07:00.358Z,2.90
2022-12-23T08:10:04.360Z,2.90
2022-12-23T08:13:09.012Z,2.90
2022-12-23T08:16:13.871Z,3.00
2022-12-23T08:19:19.625Z,3.10
2022-12-23T08:22:22.902Z,3.10
2022-12-23T08:25:26.114Z,3.10
2022-12-23T08:28:31.239Z,3.10
2022-12-23T08:31:34.592Z,3.20
2022-12-23T08:34:38.009Z,3.20
2022-12-23T08:37:41.239Z,3.20
2022-12-23T08:40:44.455Z,3.30
2022-12-23T08:43:49.559Z,3.30
2022-12-23T08:46:52.909Z,3.40
2022-12-23T08:49:56.114Z,3.50
2022-12-23T08:52:59.547Z,3.40
2022-12-23T08:56:05.019Z,3.60
2022-12-23T08:59:19.013Z,3.60
2022-12-23T09:02:23.183Z,3.60
2022-12-23T09:05:26.505Z,3.70
2022-12-23T09:08:29.770Z,3.80
2022-12-23T09:11:33.629Z,3.90
2022-12-23T09:14:38.800Z,3.90
2022-12-23T09:17:42.101Z,3.90
2022-12-23T09:20:45.561Z,4.00
2022-12-23T09:23:49.676Z,4.00
2022-12-23T09:26:52.929Z,3.90
2022-12-23T09:29:57.557Z,3.80
2022-12-23T09:33:00.874Z,3.70
2022-12-23T09:36:05.517Z,3.70
2022-12-23T09:39:08.679Z,3.80
2022-12-23T09:42:28.700Z,3.80
2022-12-23T09:46:00.417Z,3.90
2022-12-23T09:49:09.811Z,4.00
2022-12-23T09:52:17.481Z,4.20
2022-12-23T09:55:23.434Z,4.20
2022-12-23T09:58:31.190Z,4.30
2022-12-23T10:01:45.342Z,4.40
2022-12-23T10:04:57.850Z,4.50
2022-12-23T10:08:08.807Z,4.40
2022-12-23T10:11:17.968Z,4.40
2022-12-23T10:14:26.251Z,4.40
2022-12-23T10:17:40.117Z,4.30
2022-12-23T10:20:48.617Z,4.30
2022-12-23T10:23:54.530Z,4.20
2022-12-23T10:27:01.264Z,4.10
2022-12-23T10:30:34.244Z,4.10
2022-12-23T10:33:49.104Z,4.10
2022-12-23T10:37:00.858Z,4.10
2022-12-23T10:40:17.902Z,4.00
2022-12-23T10:43:28.355Z,4.00
2022-12-23T10:46:35.606Z,4.00
2022-12-23T10:49:50.099Z,4.10
2022-12-23T10:52:57.339Z,4.20
2022-12-23T10:56:01.518Z,4.10
2022-12-23T10:59:06.862Z,4.00
2022-12-23T11:02:37.195Z,4.00
2022-12-23T11:05:41.844Z,4.10
2022-12-23T11:08:45.511Z,4.10
2022-12-23T11:12:00.897Z,4.20
2022-12-23T11:15:05.073Z,4.20
2022-12-23T11:18:19.464Z,4.30
2022-12-23T11:21:24.532Z,4.30
2022-12-23T11:24:35.438Z,4.40
2022-12-23T11:27:45.302Z,4.40
2022-12-23T11:30:56.509Z,4.60
2022-12-23T11:34:02.542Z,4.70
2022-12-23T11:37:07.858Z,4.60
2022-12-23T11:40:23.036Z,4.50
2022-12-23T11:43:28.073Z,4.50
2022-12-23T11:46:34.748Z,4.50
2022-12-23T11:49:49.432Z,4.50
2022-12-23T11:52:57.131Z,4.50
2022-12-23T11:56:03.857Z,4.60
2022-12-23T11:59:09.780Z,4.60
2022-12-23T12:02:19.687Z,4.70
2022-12-23T12:05:26.945Z,4.60
2022-12-23T12:08:35.231Z,4.60
2022-12-23T12:11:45.352Z,4.60
2022-12-23T12:14:51.497Z,4.50
2022-12-23T12:17:57.163Z,4.50
2022-12-23T12:21:07.869Z,4.50
2022-12-23T12:24:19.877Z,4.50
2022-12-23T12:27:37.437Z,4.50
2022-12-23T12:30:46.176Z,4.50
2022-12-23T12:33:54.713Z,4.50
2022-12-23T12:37:05.164Z,4.40
2022-12-23T12:40:22.691Z,4.50
2022-12-23T12:43:31.082Z,4.50
2022-12-23T12:46:39.903Z,4.50
2022-12-23T12:49:49.769Z,4.40
2022-12-23T12:52:55.436Z,4.50
2022-12-23T12:56:08.256Z,4.50
2022-12-23T12:59:18.815Z,4.50
2022-12-23T13:02:40.185Z,4.50
2022-12-23T13:06:08.554Z,4.50
2022-12-23T13:09:20.414Z,4.50
2022-12-23T13:12:38.918Z,4.50
2022-12-23T13:15:52.231Z,4.50
2022-12-23T13:19:02.380Z,4.50
2022-12-23T13:22:09.358Z,4.50
2022-12-23T13:25:19.118Z,4.60
2022-12-23T13:28:35.696Z,4.60
2022-12-23T13:31:48.034Z,4.60
2022-12-23T13:35:02.275Z,4.60
2022-12-23T13:38:19.277Z,4.60
2022-12-23T13:41:29.649Z,4.60
2022-12-23T13:44:35.380Z,4.60
2022-12-23T13:47:47.206Z,4.60
2022-12-23T13:50:58.292Z,4.60
2022-12-23T13:54:11.184Z,4.60
2022-12-23T13:57:22.345Z,4.50
2022-12-23T14:00:29.895Z,4.40
2022-12-23T14:03:35.109Z,4.40
2022-12-23T14:06:46.201Z,4.20
2022-12-23T14:09:53.211Z,4.10
2022-12-23T14:13:02.290Z,4.00
2022-12-23T14:16:29.339Z,3.80
2022-12-23T14:19:43.551Z,3.80
2022-12-23T14:22:59.128Z,4.00
2022-12-23T14:26:22.739Z,3.70
2022-12-23T14:29:46.657Z,3.80
2022-12-23T14:32:58.578Z,3.80
2022-12-23T14:36:23.760Z,3.90
2022-12-23T14:39:34.531Z,3.90
2022-12-23T14:42:43.969Z,4.00
2022-12-23T14:45:47.444Z,3.90
2022-12-23T14:49:38.948Z,3.90
2022-12-23T14:53:00.217Z,3.90
2022-12-23T14:56:13.846Z,3.90
2022-12-23T14:59:24.304Z,3.90
2022-12-23T15:02:34.726Z,3.80
2022-12-23T15:05:43.528Z,3.80
2022-12-23T15:08:51.083Z,3.80
2022-12-23T15:11:55.827Z,3.80
2022-12-23T15:15:03.658Z,3.80
2022-12-23T15:18:12.495Z,3.80
2022-12-23T15:21:17.795Z,3.90
2022-12-23T15:24:23.283Z,3.80
2022-12-23T15:27:30.410Z,3.80
2022-12-23T15:30:38.367Z,3.80
2022-12-23T15:37:12.358Z,3.80
2022-12-23T15:40:25.981Z,3.80
2022-12-23T15:43:30.055Z,3.80
2022-12-23T15:46:33.683Z,3.70
2022-12-23T15:49:37.190Z,3.70
2022-12-23T15:52:44.076Z,3.70
2022-12-23T15:55:49.965Z,3.70
2022-12-23T15:58:54.543Z,3.70
2022-12-23T16:01:58.400Z,3.70
2022-12-23T16:05:05.552Z,3.70
2022-12-23T16:08:29.862Z,3.70
2022-12-23T16:11:43.711Z,3.60
2022-12-23T16:14:55.014Z,3.60
2022-12-23T16:18:14.686Z,3.60
2022-12-23T16:21:18.071Z,3.60
2022-12-23T16:24:23.230Z,3.50
2022-12-23T16:27:34.568Z,3.50
2022-12-23T16:30:39.543Z,3.50
2022-12-23T16:33:45.597Z,3.50
2022-12-23T16:36:49.113Z,3.50
2022-12-23T16:39:53.845Z,3.50
2022-12-23T16:42:58.856Z,3.50
2022-12-23T16:46:03.189Z,3.50
2022-12-23T16:49:11.108Z,3.50
2022-12-23T16:52:15.522Z,3.50
2022-12-23T16:55:21.764Z,3.50
2022-12-23T16:58:25.361Z,3.40
2022-12-23T17:01:31.238Z,3.50
2022-12-23T17:04:37.268Z,3.40
2022-12-23T17:07:45.216Z,3.50
2022-12-23T17:10:51.457Z,3.40
2022-12-23T17:14:01.578Z,3.40
2022-12-23T17:17:15.544Z,3.40
2022-12-23T17:20:20.178Z,3.40
2022-12-23T17:23:28.309Z,3.40
2022-12-23T17:26:33.174Z,3.40
2022-12-23T17:29:36.562Z,3.40
2022-12-23T17:32:40.034Z,3.40
2022-12-23T17:35:43.801Z,3.40
2022-12-23T17:38:47.153Z,3.40
2022-12-23T17:41:52.588Z,3.40
2022-12-23T17:44:55.880Z,3.40
2022-12-23T17:47:59.547Z,3.40
2022-12-23T17:51:03.258Z,3.40
2022-12-23T17:54:06.954Z,3.40
2022-12-23T17:57:24.000Z,3.40
2022-12-23T18:00:33.824Z,3.40
2022-12-23T18:03:37.626Z,3.40
2022-12-23T18:06:41.148Z,3.40
2022-12-23T18:09:44.635Z,3.40
2022-12-23T18:12:52.470Z,3.40
2022-12-23T18:15:55.791Z,3.40
2022-12-23T18:18:59.149Z,3.40
2022-12-23T18:22:03.712Z,3.40
2022-12-23T18:25:07.626Z,3.40
2022-12-23T18:28:13.292Z,3.40
2022-12-23T18:31:18.150Z,3.40
2022-12-23T18:34:21.971Z,3.30
2022-12-23T18:37:25.725Z,3.30
2022-12-23T18:40:32.904Z,3.30
2022-12-23T18:43:38.639Z,3.40
2022-12-23T18:46:42.247Z,3.40
2022-12-23T18:49:45.963Z,3.40
2022-12-23T18:52:51.740Z,3.40
2022-12-23T18:55:55.628Z,3.40
2022-12-23T18:59:02.277Z,3.40
2022-12-23T19:02:06.168Z,3.40
2022-12-23T19:05:23.849Z,3.40
2022-12-23T19:08:28.093Z,2.90
2022-12-23T19:11:31.700Z,3.40
2022-12-23T19:14:36.570Z,3.40
2022-12-23T19:17:40.194Z,3.40
2022-12-23T19:20:46.847Z,3.80
2022-12-23T19:23:51.784Z,3.30
2022-12-23T19:26:55.128Z,3.40
2022-12-23T19:30:01.233Z,3.30
2022-12-23T19:33:05.483Z,3.30
2022-12-23T19:36:12.425Z,3.40
2022-12-23T19:39:18.232Z,3.30
2022-12-23T19:42:22.070Z,3.30
2022-12-23T19:45:27.187Z,3.30
2022-12-23T19:48:32.102Z,3.20
2022-12-23T19:51:35.443Z,3.20
2022-12-23T19:54:39.003Z,3.30
2022-12-23T19:57:43.214Z,2.00
2022-12-23T20:00:48.617Z,3.20
2022-12-23T20:03:53.322Z,3.30
2022-12-23T20:06:56.837Z,3.30
2022-12-23T20:10:00.178Z,3.30
2022-12-23T20:13:03.887Z,3.30
2022-12-23T20:16:10.271Z,3.20
2022-12-23T20:19:13.840Z,3.30
2022-12-23T20:22:17.232Z,3.30
2022-12-23T20:25:20.578Z,3.30
2022-12-23T20:28:24.114Z,3.30
2022-12-23T20:31:30.078Z,3.30
2022-12-23T20:34:39.190Z,3.30
2022-12-23T20:37:43.450Z,3.40
2022-12-23T20:40:46.775Z,3.40
2022-12-23T20:44:23.328Z,3.40
2022-12-23T20:50:19.599Z,3.40
2022-12-23T20:53:23.360Z,3.40
2022-12-23T20:56:29.370Z,3.40
2022-12-23T20:59:33.224Z,3.40
2022-12-23T21:02:38.029Z,3.40
2022-12-23T21:05:41.425Z,3.40
2022-12-23T21:08:44.753Z,3.30
2022-12-23T21:11:48.927Z,3.40
2022-12-23T21:14:52.222Z,3.40
2022-12-23T21:17:58.460Z,3.40
2022-12-23T21:21:03.705Z,3.40
2022-12-23T21:24:07.950Z,3.40
2022-12-23T21:27:12.581Z,3.40
2022-12-23T21:30:17.743Z,3.40
2022-12-23T21:33:23.102Z,3.50
2022-12-23T21:36:29.198Z,3.40
2022-12-23T21:39:33.253Z,3.40
2022-12-23T21:42:36.539Z,3.40
2022-12-23T21:45:40.566Z,3.40
2022-12-23T21:48:45.972Z,3.40
2022-12-23T21:51:50.491Z,3.40
2022-12-23T21:54:53.859Z,3.40
2022-12-23T21:57:57.109Z,3.40
2022-12-23T22:01:00.755Z,3.40
2022-12-23T22:04:06.243Z,3.40
2022-12-23T22:07:09.968Z,3.40
2022-12-23T22:10:13.413Z,3.40
2022-12-23T22:13:16.724Z,3.40
2022-12-23T22:16:22.370Z,3.40
2022-12-23T22:19:27.355Z,3.40
2022-12-23T22:22:30.857Z,3.40
2022-12-23T22:25:34.156Z,3.40
2022-12-23T22:28:38.509Z,3.40
2022-12-23T22:31:44.441Z,3.40
2022-12-23T22:34:49.220Z,3.30
2022-12-23T22:37:52.783Z,3.30
2022-12-23T22:40:56.140Z,3.30
2022-12-23T22:44:00.515Z,3.30
2022-12-23T22:47:04.123Z,3.30
2022-12-23T22:50:10.501Z,3.30
2022-12-23T22:53:16.835Z,3.30
2022-12-23T22:56:22.168Z,3.30
2022-12-23T22:59:26.649Z,3.30
2022-12-23T23:02:30.883Z,3.30
2022-12-23T23:05:36.000Z,3.30
2022-12-23T23:08:39.479Z,3.30
2022-12-23T23:11:43.308Z,3.30
2022-12-23T23:14:56.081Z,3.30
2022-12-23T23:17:59.414Z,3.30
2022-12-23T23:21:04.297Z,3.20
2022-12-23T23:24:08.465Z,3.30
2022-12-23T23:27:12.188Z,3.30
2022-12-23T23:30:15.528Z,3.30
2022-12-23T23:33:19.022Z,3.30
2022-12-23T23:36:24.256Z,3.30
2022-12-23T23:39:27.823Z,3.30
2022-12-23T23:42:31.094Z,3.30
2022-12-23T23:45:34.456Z,3.30
2022-12-23T23:48:37.920Z,3.30
2022-12-23T23:51:43.047Z,3.30
2022-12-23T23:54:46.512Z,3.30
2022-12-23T23:57:50.002Z,3.30
